TimeEST,TemperatureF,Dew PointF,Humidity,Sea Level PressureIn,VisibilityMPH,Wind Direction,Wind SpeedMPH,Gust SpeedMPH,PrecipitationIn,Events,Conditions,WindDirDegrees,DateUTC
12:53 AM,69.1,64.9,87,30.08,10.0,East,3.5,-,N/A,,Clear,100,2012-02-05 05:53:00
1:53 AM,68.0,64.9,90,30.07,8.0,East,4.6,-,N/A,,Clear,90,2012-02-05 06:53:00
2:53 AM,68.0,64.9,90,30.06,7.0,East,4.6,-,N/A,,Clear,80,2012-02-05 07:53:00
3:53 AM,68.0,64.9,90,30.04,8.0,East,6.9,-,N/A,,Clear,90,2012-02-05 08:53:00
4:53 AM,68.0,64.9,90,30.04,7.0,East,3.5,-,N/A,,Clear,90,2012-02-05 09:53:00
5:53 AM,66.9,64.9,93,30.04,6.0,Calm,Calm,-,N/A,,Clear,0,2012-02-05 10:53:00
6:53 AM,66.0,64.0,93,30.04,5.0,Calm,Calm,-,N/A,,Clear,0,2012-02-05 11:53:00
7:24 AM,66.2,64.4,94,30.04,1.8,Calm,Calm,-,N/A,,Clear,0,2012-02-05 12:24:00
7:40 AM,64.4,64.4,100,30.05,0.5,Calm,Calm,-,N/A,Fog,Fog,0,2012-02-05 12:40:00
7:50 AM,66.2,64.4,94,30.06,5.0,Calm,Calm,-,N/A,,Clear,0,2012-02-05 12:50:00
7:53 AM,66.0,64.0,93,30.06,5.0,Calm,Calm,-,N/A,,Clear,0,2012-02-05 12:53:00
8:53 AM,70.0,66.0,87,30.07,7.0,East,4.6,-,N/A,,Clear,100,2012-02-05 13:53:00
9:53 AM,73.0,66.0,79,30.07,10.0,Variable,5.8,-,N/A,,Clear,0,2012-02-05 14:53:00
10:53 AM,75.9,66.0,71,30.07,10.0,ESE,5.8,-,N/A,,Clear,120,2012-02-05 15:53:00
11:53 AM,78.1,64.9,64,30.06,10.0,SSE,5.8,-,N/A,,Clear,160,2012-02-05 16:53:00
12:53 PM,79.0,64.0,60,30.04,10.0,ESE,5.8,-,N/A,,Clear,120,2012-02-05 17:53:00
1:53 PM,79.0,64.0,60,30.00,10.0,ENE,4.6,-,N/A,,Clear,70,2012-02-05 18:53:00
2:53 PM,79.0,64.0,60,29.99,10.0,Variable,4.6,-,N/A,,Partly Cloudy,0,2012-02-05 19:53:00
3:53 PM,79.0,64.0,60,29.99,10.0,Calm,Calm,-,N/A,,Clear,0,2012-02-05 20:53:00
4:53 PM,79.0,64.0,60,30.00,10.0,Calm,Calm,-,N/A,,Scattered Clouds,0,2012-02-05 21:53:00
5:53 PM,78.1,64.0,62,30.01,10.0,Calm,Calm,-,N/A,,Scattered Clouds,0,2012-02-05 22:53:00
6:53 PM,75.0,64.9,71,30.01,10.0,NNW,5.8,-,N/A,,Partly Cloudy,330,2012-02-05 23:53:00
7:53 PM,75.0,64.9,71,30.02,10.0,Calm,Calm,-,N/A,,Overcast,0,2012-02-06 00:53:00
8:53 PM,73.0,64.9,76,30.04,10.0,Calm,Calm,-,N/A,,Clear,0,2012-02-06 01:53:00
9:53 PM,73.0,64.9,76,30.05,10.0,East,3.5,-,N/A,,Scattered Clouds,90,2012-02-06 02:53:00
10:53 PM,73.0,64.9,76,30.05,10.0,NE,4.6,-,N/A,,Mostly Cloudy,50,2012-02-06 03:53:00
11:53 PM,72.0,63.0,73,30.05,10.0,East,3.5,-,N/A,,Partly Cloudy,90,2012-02-06 04:53:00